Peixe-Boi, Brazil
Current Conditions -  °F | °C
As of 3:00 PM on Monday 24 Nov 2014 (Local Time) from SBBE Reporting Station
Scattered Clouds Scattered Clouds  
Wind Chill: 86°   Ceiling: Unl
Heat Index: 95°   Visibility: 6mi
Dew Point: 75°   Wind: 14mph
Humidity: 70%   Direction: 20°NNE
Pressure: 29.8"   Gusts: NA
Location:  1.19°S, 47.31°W
Report Text: SBBE 241800Z 02012KT 9999 SCT040 30/24 Q1009
Loading
Personal Weather Stations






























Interactive Weather Map New forecast layout! Learn more

10-Day Weather Forecast

Advertisements
Track Severe Weather on mobile